San Lorenzo, CA

3:16 PM PST on December 21, 2014 (GMT -0800)
Hayward Executive | Change Station
CLOSE
Current Station
Airport
Location: Hayward,
Elevation: 46 ft
Nearby Weather Stations
Active Advisory: Coastal Flood Advisory

Elev 46 ft 37.66 °N, 122.12 °W | Updated 22 minutes ago

Partly Cloudy
Partly Cloudy
64 °F
Feels Like 64 °F
N
9
Wind Variable Wind from WNW

Today
High -- | Low -- °F
--% Chance of Precip.
Yesterday
High -- | Low -- °F
Precip. -- in
7:19 AM 4:53 PM
Waning Crescent, 0% visible
Pressure 30.29 in
Visibility 10.0 miles
Clouds Few 1000 ft
Scattered Clouds 2100 ft
Mostly Cloudy 20000 ft
Dew Point 59 °F
Humidity 84%
Rainfall 0.01 in
Snow Depth Not available.
UV 1 out of 12
Pollen 4.00 out of 12
Air Quality Not available.
Flu Activity Not available.
METAR KHWD 212254Z 29008KT 10SM FEW010 SCT021 BKN200 18/15 A3026 RMK AO2 SLP257 T01780150 $

More Conditions Fewer Conditions

Pressure 30.29 in
Visibility 10.0 miles
Clouds Few 1000 ft
Scattered Clouds 2100 ft
Mostly Cloudy 20000 ft
Dew Point 59 °F
Humidity 84%
Rainfall 0.01 in
Snow Depth Not available.
UV 1 out of 12
Pollen 4.00 out of 12
Air Quality Not available.
Flu Activity Not available.
METAR KHWD 212254Z 29008KT 10SM FEW010 SCT021 BKN200 18/15 A3026 RMK AO2 SLP257 T01780150 $

More Conditions Fewer Conditions

10-Day Weather Forecast

Almanac

Astronomy

Dec. 21, 2014 Rise Set
Actual Time
Civil Twilight
Nautical Twilight
Astronomical Twilight
Moon
Length of Visible Light
Length of Day
Tomorrow will be .
, % of the Moon is Illuminated

Today's Extremes

State Highs State Lows

Community

WunderPhotos

Upload Photos

1,779,502 photos uploaded!

WunderBlogs® & News

Nearby

Air Quality

  Air Quality AQ Index Pollutant
Not available.

Snow Depth

Station Depth Elevation

Earthquake Activity

City Distance Mag. Time & Date
Minimum magnitude displayed is 2.5.

Coastal Water Temperatures

Place Temperature

Nearby Weather Stations